Time;durP1;ratioP1;P1;durP2;ratioP2;P2;SDS_P1;SDS_P2;PMS_P1;PMS_P2;Temp;Humidity;BMP_temperature;BMP_pressure;BME280_temperature;BME280_humidity;BME280_pressure;Samples;Min_cycle;Max_cycle;Signal;HPM_P1;HPM_P2
2022/12/07 00:01:06;;;;;;;44.20;26.37;;;4.10;99.90;;;;;;5056659;28;20224;-79
2022/12/07 00:04:00;;;;;;;39.90;25.63;;;4.10;99.90;;;;;;5055994;28;20221;-81
2022/12/07 00:06:54;;;;;;;43.27;26.83;;;4.20;99.90;;;;;;5053565;28;20224;-79
2022/12/07 00:09:42;;;;;;;46.47;28.10;;;4.10;99.90;;;;;;5055260;28;20216;-78
2022/12/07 00:12:31;;;;;;;44.50;28.10;;;4.10;99.90;;;;;;5062601;28;20216;-78
2022/12/07 00:15:20;;;;;;;44.13;28.00;;;4.10;99.90;;;;;;5046773;28;20224;-78
2022/12/07 00:18:09;;;;;;;45.57;27.90;;;4.20;99.90;;;;;;5057501;28;20227;-78
2022/12/07 00:21:01;;;;;;;48.40;28.63;;;4.20;99.90;;;;;;5040580;28;20219;-79
2022/12/07 00:23:52;;;;;;;42.07;27.50;;;4.30;99.90;;;;;;5050055;28;20228;-79
2022/12/07 00:26:43;;;;;;;49.87;30.60;;;4.30;99.90;;;;;;5047483;28;20212;-83
2022/12/07 00:29:32;;;;;;;49.77;30.37;;;4.30;99.90;;;;;;5046630;28;20597;-78
2022/12/07 00:32:21;;;;;;;59.50;31.80;;;4.30;99.90;;;;;;5042825;28;20228;-79
2022/12/07 00:35:10;;;;;;;55.00;32.97;;;4.30;99.90;;;;;;5054641;28;20220;-79
2022/12/07 00:37:58;;;;;;;53.73;31.23;;;4.30;99.90;;;;;;5037967;28;20227;-79
2022/12/07 00:41:00;;;;;;;50.50;31.23;;;4.20;99.90;;;;;;5047024;28;20220;-77
2022/12/07 00:43:50;;;;;;;57.20;32.10;;;4.50;99.90;;;;;;5055607;28;20254;-76
2022/12/07 00:46:38;;;;;;;49.10;30.37;;;4.40;99.90;;;;;;5041375;28;20212;-74
2022/12/07 00:49:27;;;;;;;55.83;32.37;;;4.40;99.90;;;;;;5037208;28;20712;-75
2022/12/07 00:52:16;;;;;;;54.70;33.13;;;4.40;99.90;;;;;;5047672;28;20227;-77
2022/12/07 00:55:05;;;;;;;54.03;33.90;;;4.30;99.90;;;;;;5041650;28;20228;-77
2022/12/07 00:57:55;;;;;;;58.13;33.60;;;4.30;99.90;;;;;;5044649;28;20924;-78
2022/12/07 01:00:44;;;;;;;53.33;32.60;;;4.30;99.90;;;;;;5039683;28;20285;-79
2022/12/07 01:03:33;;;;;;;52.20;32.60;;;4.40;99.90;;;;;;5037761;28;20221;-79
2022/12/07 01:06:24;;;;;;;57.53;33.53;;;4.30;99.90;;;;;;5054880;28;20573;-78
2022/12/07 01:09:13;;;;;;;58.57;33.47;;;4.40;99.90;;;;;;5041259;28;20235;-79
2022/12/07 01:12:02;;;;;;;54.77;32.93;;;4.40;99.90;;;;;;5045449;28;20227;-77
2022/12/07 01:14:52;;;;;;;60.80;33.87;;;4.40;99.90;;;;;;5036398;28;20526;-79
2022/12/07 01:17:41;;;;;;;59.00;34.03;;;4.50;99.90;;;;;;5054317;28;20251;-78
2022/12/07 01:20:30;;;;;;;59.83;33.70;;;4.50;99.90;;;;;;5034983;28;20221;-77
2022/12/07 01:23:19;;;;;;;53.97;33.37;;;4.50;99.90;;;;;;5033045;28;22296;-77
2022/12/07 01:26:11;;;;;;;49.57;29.23;;;4.50;99.90;;;;;;5031766;28;20236;-78
2022/12/07 01:29:00;;;;;;;46.60;27.80;;;4.50;99.90;;;;;;5034389;28;22299;-78
2022/12/07 01:31:51;;;;;;;43.53;26.80;;;4.60;99.90;;;;;;5023876;28;20213;-78
2022/12/07 01:34:40;;;;;;;48.40;27.27;;;4.60;99.90;;;;;;5025053;28;20231;-78
2022/12/07 01:37:28;;;;;;;43.40;26.77;;;4.70;99.90;;;;;;5039662;28;20930;-78
2022/12/07 01:40:17;;;;;;;42.43;25.60;;;4.70;99.90;;;;;;5016576;28;20304;-77
2022/12/07 01:43:09;;;;;;;45.47;26.47;;;4.70;99.90;;;;;;5035060;28;20228;-77
2022/12/07 01:45:58;;;;;;;37.53;23.17;;;4.70;99.90;;;;;;5026340;28;20275;-77
2022/12/07 01:48:48;;;;;;;35.57;22.00;;;4.80;99.90;;;;;;5024852;28;20224;-78
2022/12/07 01:51:39;;;;;;;36.10;22.30;;;4.70;99.90;;;;;;5025411;28;20256;-79
2022/12/07 01:54:28;;;;;;;33.27;20.83;;;4.70;99.90;;;;;;5020839;28;20725;-78
2022/12/07 01:57:19;;;;;;;30.77;18.97;;;4.70;99.90;;;;;;5024090;28;20221;-78
2022/12/07 02:00:09;;;;;;;31.30;19.00;;;4.70;99.90;;;;;;5018518;28;20225;-79
2022/12/07 02:03:06;;;;;;;27.30;17.50;;;4.60;99.90;;;;;;5029973;28;20224;-78
2022/12/07 02:05:56;;;;;;;23.20;16.70;;;4.70;99.90;;;;;;5038033;28;20252;-80
2022/12/07 02:08:46;;;;;;;26.50;15.67;;;4.70;99.90;;;;;;5035147;28;20599;-79
2022/12/07 02:11:34;;;;;;;24.57;15.33;;;4.70;99.90;;;;;;5034949;28;20212;-78
2022/12/07 02:14:24;;;;;;;22.30;14.73;;;4.70;99.90;;;;;;5034201;28;20224;-78
2022/12/07 02:17:17;;;;;;;22.23;14.13;;;4.80;99.90;;;;;;5038934;28;20228;-78
2022/12/07 02:20:28;;;;;;;20.53;13.73;;;4.80;99.90;;;;;;5050943;28;20303;-78
2022/12/07 02:24:04;;;;;;;19.20;12.37;;;4.80;99.90;;;;;;5039239;28;20230;-78
2022/12/07 02:27:29;;;;;;;19.83;12.60;;;4.70;99.90;;;;;;5060577;28;20664;-78
2022/12/07 02:30:21;;;;;;;20.83;12.97;;;4.80;99.90;;;;;;5055440;28;20223;-79
2022/12/07 02:33:17;;;;;;;17.53;12.30;;;4.70;99.90;;;;;;5043168;28;20231;-78
2022/12/07 02:36:10;;;;;;;17.13;11.70;;;4.70;99.90;;;;;;5060695;28;20228;-77
2022/12/07 02:39:07;;;;;;;18.90;13.00;;;4.70;99.90;;;;;;5046495;28;20231;-77
2022/12/07 02:41:59;;;;;;;18.13;12.90;;;4.60;99.90;;;;;;5043134;28;20255;-77
2022/12/07 02:44:48;;;;;;;18.77;12.50;;;4.70;99.90;;;;;;5056408;28;20228;-78
2022/12/07 02:47:40;;;;;;;18.07;12.47;;;4.70;99.90;;;;;;5057256;28;20224;-77
2022/12/07 02:50:29;;;;;;;19.47;12.50;;;4.80;99.90;;;;;;5055490;28;20220;-78
2022/12/07 02:53:35;;;;;;;16.83;11.70;;;4.60;99.90;;;;;;5043907;28;20297;-77
2022/12/07 02:56:33;;;;;;;14.23;10.70;;;4.70;99.90;;;;;;5053242;28;20223;-77
2022/12/07 02:59:33;;;;;;;17.27;11.40;;;4.70;99.90;;;;;;5046524;28;21162;-76
2022/12/07 03:02:32;;;;;;;18.03;11.87;;;4.70;99.90;;;;;;5045187;28;20242;-77
2022/12/07 03:05:43;;;;;;;19.20;12.80;;;4.70;99.90;;;;;;5037855;28;20227;-77
2022/12/07 03:08:42;;;;;;;18.70;12.90;;;4.70;99.90;;;;;;5057847;28;20224;-76
2022/12/07 03:11:39;;;;;;;17.53;12.63;;;4.50;99.90;;;;;;5054110;28;20221;-78
2022/12/07 03:14:33;;;;;;;17.73;12.50;;;4.50;99.90;;;;;;5046730;28;20236;-77
2022/12/07 03:17:27;;;;;;;17.63;11.93;;;4.60;99.90;;;;;;5063923;28;20216;-77
2022/12/07 03:20:21;;;;;;;16.37;11.90;;;4.60;99.90;;;;;;5042408;28;20228;-77
2022/12/07 03:23:13;;;;;;;15.23;11.30;;;4.50;99.90;;;;;;5037543;28;20227;-77
2022/12/07 03:26:03;;;;;;;19.50;11.83;;;4.50;99.90;;;;;;5022869;28;20249;-77
2022/12/07 03:28:56;;;;;;;16.80;11.40;;;4.50;99.90;;;;;;5018877;28;20222;-77
2022/12/07 03:31:52;;;;;;;15.67;10.10;;;4.50;99.90;;;;;;5034570;28;20847;-76
2022/12/07 03:34:45;;;;;;;15.90;10.13;;;4.50;99.90;;;;;;5036804;28;20904;-77
2022/12/07 03:37:37;;;;;;;14.53;10.37;;;4.50;99.90;;;;;;5024289;28;20224;-77
2022/12/07 03:40:35;;;;;;;12.97;9.53;;;4.50;99.90;;;;;;5024446;28;20397;-77
2022/12/07 03:43:24;;;;;;;12.57;9.20;;;4.40;99.90;;;;;;5017230;28;20214;-78
2022/12/07 03:46:21;;;;;;;12.73;9.10;;;4.50;99.90;;;;;;5035908;28;20335;-78
2022/12/07 03:49:18;;;;;;;13.60;8.70;;;4.40;99.90;;;;;;5030373;28;20281;-78
2022/12/07 03:52:13;;;;;;;10.23;8.37;;;4.50;99.90;;;;;;5018135;28;20723;-77
2022/12/07 03:55:06;;;;;;;11.17;7.47;;;4.50;99.90;;;;;;5019129;28;20239;-77
2022/12/07 03:58:02;;;;;;;10.77;7.87;;;4.50;99.90;;;;;;5029531;28;20607;-77
2022/12/07 04:00:52;;;;;;;11.53;8.17;;;4.40;99.90;;;;;;5026070;28;20228;-78
2022/12/07 04:03:40;;;;;;;10.40;8.30;;;4.50;99.90;;;;;;5021445;28;20221;-77
2022/12/07 04:06:29;;;;;;;9.10;7.80;;;4.50;99.90;;;;;;5024264;28;20228;-77
2022/12/07 04:09:18;;;;;;;13.83;8.30;;;4.40;99.90;;;;;;5040113;28;20229;-77
2022/12/07 04:12:08;;;;;;;13.80;9.30;;;4.40;99.90;;;;;;5020687;28;20232;-78
2022/12/07 04:14:58;;;;;;;12.97;9.37;;;4.30;99.90;;;;;;5019970;28;20220;-78
2022/12/07 04:17:47;;;;;;;12.27;8.87;;;4.30;99.90;;;;;;5031642;28;20240;-77
2022/12/07 04:20:35;;;;;;;11.70;8.63;;;4.30;99.90;;;;;;5044964;28;20220;-77
2022/12/07 04:23:24;;;;;;;13.67;9.20;;;4.50;99.90;;;;;;5050950;28;20216;-77
2022/12/07 04:26:13;;;;;;;12.30;9.20;;;4.40;99.90;;;;;;5037383;28;20228;-77
2022/12/07 04:29:01;;;;;;;9.70;7.77;;;4.40;99.90;;;;;;5054461;28;20291;-78
2022/12/07 04:31:56;;;;;;;11.50;8.30;;;4.40;99.90;;;;;;5041967;28;20754;-77
2022/12/07 04:34:45;;;;;;;8.93;7.27;;;4.30;99.90;;;;;;5059752;28;20224;-77
2022/12/07 04:37:39;;;;;;;10.63;6.97;;;4.40;99.90;;;;;;5039234;28;20228;-79
2022/12/07 04:40:27;;;;;;;9.23;7.53;;;4.30;99.90;;;;;;5055190;28;20256;-79
2022/12/07 04:43:16;;;;;;;8.23;6.90;;;4.30;99.90;;;;;;5040168;28;20250;-78
2022/12/07 04:46:05;;;;;;;9.90;7.50;;;4.40;99.90;;;;;;5044636;28;20227;-75
2022/12/07 04:48:55;;;;;;;10.13;6.90;;;4.40;99.90;;;;;;5044490;28;20365;-77
2022/12/07 04:51:45;;;;;;;9.80;6.77;;;4.40;99.90;;;;;;5058464;28;20220;-78
2022/12/07 04:54:34;;;;;;;10.27;7.50;;;4.20;99.90;;;;;;5040602;28;20227;-79
2022/12/07 04:57:22;;;;;;;10.73;7.20;;;4.30;99.90;;;;;;5057673;28;20246;-78
2022/12/07 05:00:12;;;;;;;9.17;6.73;;;4.20;99.90;;;;;;5038263;28;20228;-79
2022/12/07 05:03:01;;;;;;;10.30;7.10;;;4.10;99.90;;;;;;5051404;28;20225;-79
2022/12/07 05:05:51;;;;;;;9.57;7.50;;;4.10;99.90;;;;;;5042738;28;20213;-79
2022/12/07 05:08:40;;;;;;;9.60;6.97;;;4.10;99.90;;;;;;5052229;28;20594;-79
2022/12/07 05:14:37;;;;;;;11.90;7.67;;;4.00;99.90;;;;;;5041537;28;20219;-79
2022/12/07 05:17:26;;;;;;;9.90;7.47;;;4.10;99.90;;;;;;5038821;28;20236;-78
2022/12/07 05:20:15;;;;;;;9.53;7.20;;;4.00;99.90;;;;;;5019060;28;20236;-79
2022/12/07 05:23:05;;;;;;;12.50;8.17;;;4.10;99.90;;;;;;5019438;28;20282;-78
2022/12/07 05:25:54;;;;;;;12.07;7.67;;;4.10;99.90;;;;;;5039118;28;20212;-77
2022/12/07 05:28:43;;;;;;;8.67;6.97;;;4.10;99.90;;;;;;5019832;28;20220;-78
2022/12/07 05:31:32;;;;;;;12.97;7.93;;;4.00;99.90;;;;;;5032580;28;20221;-79
2022/12/07 05:34:20;;;;;;;9.90;7.80;;;4.00;99.90;;;;;;5018758;28;20673;-78
2022/12/07 05:37:09;;;;;;;13.80;9.33;;;3.90;99.90;;;;;;5016952;28;20615;-79
2022/12/07 05:39:59;;;;;;;12.07;7.67;;;3.80;99.90;;;;;;5035793;28;20693;-79
2022/12/07 05:42:48;;;;;;;9.27;7.53;;;3.90;99.90;;;;;;5023197;28;20260;-78
2022/12/07 05:45:38;;;;;;;11.80;7.53;;;3.90;99.90;;;;;;5024381;28;20209;-78
2022/12/07 05:48:27;;;;;;;10.50;7.83;;;3.90;99.90;;;;;;5033756;28;20232;-78
2022/12/07 05:51:15;;;;;;;10.70;7.90;;;4.00;99.90;;;;;;5022794;28;20229;-79
2022/12/07 05:54:04;;;;;;;12.03;8.03;;;3.90;99.90;;;;;;5030188;28;20291;-78
2022/12/07 05:56:55;;;;;;;14.17;7.63;;;3.80;99.90;;;;;;5033186;28;20239;-77
2022/12/07 05:59:43;;;;;;;11.20;8.13;;;3.90;99.90;;;;;;5035210;28;20232;-78
2022/12/07 06:02:31;;;;;;;11.37;8.23;;;3.90;99.90;;;;;;5020290;28;20213;-76
2022/12/07 06:05:20;;;;;;;14.33;8.43;;;3.90;99.90;;;;;;5037005;28;20231;-78
2022/12/07 06:08:09;;;;;;;12.13;8.63;;;3.80;99.90;;;;;;5034958;28;20704;-77
2022/12/07 06:14:01;;;;;;;16.47;8.60;;;3.80;99.90;;;;;;5019288;28;20235;-77
2022/12/07 06:16:50;;;;;;;12.10;8.70;;;3.80;99.90;;;;;;5039531;28;20236;-77
2022/12/07 06:19:39;;;;;;;11.60;8.47;;;3.90;99.90;;;;;;5045235;28;20596;-78
2022/12/07 06:22:28;;;;;;;12.53;8.80;;;3.90;99.90;;;;;;5057580;28;20216;-80
2022/12/07 06:25:17;;;;;;;11.93;8.37;;;3.90;99.90;;;;;;5052295;28;20741;-78
2022/12/07 06:28:06;;;;;;;41.67;26.60;;;3.90;99.90;;;;;;5042432;28;20259;-80
2022/12/07 06:30:59;;;;;;;14.37;10.53;;;3.90;99.90;;;;;;5040478;28;20235;-77
2022/12/07 06:33:48;;;;;;;12.53;9.70;;;3.90;99.90;;;;;;5040155;28;20216;-77
2022/12/07 06:36:38;;;;;;;15.67;10.10;;;3.80;99.90;;;;;;5063482;28;20224;-77
2022/12/07 06:39:28;;;;;;;12.43;9.27;;;3.90;99.90;;;;;;5045968;28;20227;-79
2022/12/07 06:42:17;;;;;;;15.27;9.43;;;3.80;99.90;;;;;;5031557;28;20221;-78
2022/12/07 06:45:06;;;;;;;13.20;9.17;;;3.80;99.90;;;;;;5041882;28;20224;-79
2022/12/07 06:47:56;;;;;;;13.23;9.57;;;3.70;99.90;;;;;;5044555;28;20592;-79
2022/12/07 06:50:45;;;;;;;13.87;9.37;;;3.80;99.90;;;;;;5057473;28;20220;-79
2022/12/07 06:53:42;;;;;;;14.20;9.60;;;3.90;99.90;;;;;;5060930;28;20215;-79
2022/12/07 06:56:30;;;;;;;12.93;9.10;;;3.90;99.90;;;;;;5055014;28;20224;-79
2022/12/07 06:59:19;;;;;;;15.60;9.30;;;3.90;99.90;;;;;;5060073;28;20227;-78
2022/12/07 07:02:09;;;;;;;12.13;8.97;;;3.80;99.90;;;;;;5058733;28;20895;-76
2022/12/07 07:04:59;;;;;;;11.80;9.07;;;3.80;99.90;;;;;;5053555;28;20713;-76
2022/12/07 07:07:48;;;;;;;13.53;9.50;;;3.70;99.90;;;;;;5044430;28;20225;-78
2022/12/07 07:10:57;;;;;;;12.87;9.73;;;3.70;99.90;;;;;;5042859;28;20255;-81
2022/12/07 07:13:46;;;;;;;15.70;10.20;;;3.80;99.90;;;;;;5056496;28;20224;-81
2022/12/07 07:16:35;;;;;;;13.93;10.67;;;3.90;99.90;;;;;;5040982;28;20313;-81
2022/12/07 07:19:24;;;;;;;15.93;10.47;;;3.90;99.90;;;;;;5054704;28;20230;-80
2022/12/07 07:22:14;;;;;;;14.47;9.53;;;3.90;99.90;;;;;;5044612;28;20255;-80
2022/12/07 07:25:04;;;;;;;13.40;9.90;;;3.80;99.90;;;;;;5052059;28;20232;-81
2022/12/07 07:27:52;;;;;;;16.43;11.27;;;3.80;99.90;;;;;;5036849;28;20213;-77
2022/12/07 07:30:42;;;;;;;30.97;24.33;;;3.80;99.90;;;;;;5057525;28;20239;-77
2022/12/07 07:33:30;;;;;;;15.00;10.10;;;3.80;99.90;;;;;;5056805;28;20211;-78
2022/12/07 07:36:19;;;;;;;16.73;11.00;;;3.80;99.90;;;;;;5053287;28;20224;-79
2022/12/07 07:39:12;;;;;;;16.23;10.30;;;3.80;99.90;;;;;;5038741;28;20235;-81
2022/12/07 07:42:01;;;;;;;16.70;10.47;;;3.90;99.90;;;;;;5041025;28;20324;-79
2022/12/07 07:44:53;;;;;;;14.70;10.20;;;3.80;99.90;;;;;;5036149;28;20251;-79
2022/12/07 07:47:42;;;;;;;13.33;9.63;;;3.90;99.90;;;;;;5041521;28;20644;-81
2022/12/07 07:50:31;;;;;;;57.13;42.03;;;3.90;99.90;;;;;;5058966;28;20240;-79
2022/12/07 07:53:19;;;;;;;14.90;10.50;;;3.90;99.90;;;;;;5039930;28;20232;-76
2022/12/07 07:56:10;;;;;;;13.20;9.87;;;3.90;99.90;;;;;;5043813;28;20239;-82
2022/12/07 07:58:58;;;;;;;16.50;10.50;;;3.90;99.90;;;;;;5038151;28;20235;-81
2022/12/07 08:01:47;;;;;;;14.10;10.00;;;3.90;99.90;;;;;;5048039;28;20437;-83
2022/12/07 08:04:37;;;;;;;16.53;10.43;;;3.90;99.90;;;;;;5059670;28;20402;-83
2022/12/07 08:07:26;;;;;;;15.53;10.90;;;3.90;99.90;;;;;;5043611;28;20224;-84
2022/12/07 08:10:15;;;;;;;19.03;10.17;;;4.00;99.90;;;;;;5038765;28;20224;-84
2022/12/07 08:13:14;;;;;;;18.07;10.27;;;3.90;99.90;;;;;;5039459;28;20300;-83
2022/12/07 08:16:05;;;;;;;14.37;10.07;;;4.00;99.90;;;;;;5065305;28;20224;-84
2022/12/07 08:18:54;;;;;;;15.10;10.77;;;3.90;99.90;;;;;;5038848;28;20712;-84
2022/12/07 08:21:43;;;;;;;17.80;11.43;;;4.00;99.90;;;;;;5055362;28;20730;-83
2022/12/07 08:24:34;;;;;;;15.80;10.77;;;4.10;99.90;;;;;;5044820;28;20320;-82
2022/12/07 08:27:26;;;;;;;18.93;11.43;;;4.10;99.90;;;;;;5055117;28;20231;-84
2022/12/07 08:30:17;;;;;;;17.97;11.53;;;4.10;99.90;;;;;;5060473;28;20349;-85
2022/12/07 08:33:06;;;;;;;17.20;12.10;;;4.10;99.90;;;;;;5049397;28;20234;-85
2022/12/07 08:35:55;;;;;;;21.13;13.73;;;4.20;99.90;;;;;;5047667;28;20212;-88
2022/12/07 08:38:44;;;;;;;19.40;12.73;;;4.10;99.90;;;;;;5069208;28;20236;-88
2022/12/07 08:41:52;;;;;;;21.20;13.63;;;4.10;99.90;;;;;;5070280;28;20261;-90
2022/12/07 08:44:41;;;;;;;20.93;13.93;;;4.20;99.90;;;;;;5048424;28;20932;-83
2022/12/07 08:47:31;;;;;;;27.20;15.70;;;4.20;99.90;;;;;;5066932;28;20236;-85
2022/12/07 08:50:20;;;;;;;26.17;15.20;;;4.30;99.90;;;;;;5041007;28;20220;-87
2022/12/07 08:53:09;;;;;;;22.47;15.53;;;4.30;99.90;;;;;;5048607;28;20251;-86
2022/12/07 08:55:58;;;;;;;27.43;16.13;;;4.20;99.90;;;;;;5059595;28;20244;-86
2022/12/07 08:58:48;;;;;;;23.80;15.70;;;4.30;99.90;;;;;;5059267;28;20224;-83
2022/12/07 09:01:36;;;;;;;26.20;15.83;;;4.30;99.90;;;;;;5048418;28;20255;-87
2022/12/07 09:04:27;;;;;;;23.80;15.67;;;4.40;99.90;;;;;;5059869;28;20232;-84
2022/12/07 09:07:16;;;;;;;23.20;14.37;;;4.40;99.90;;;;;;5038972;28;20217;-84
2022/12/07 09:10:06;;;;;;;23.27;14.57;;;4.40;99.90;;;;;;5060898;28;20225;-84
2022/12/07 09:12:55;;;;;;;22.53;14.67;;;4.60;99.90;;;;;;5037951;28;20227;-84
2022/12/07 09:15:43;;;;;;;24.77;14.90;;;4.50;99.90;;;;;;5041525;28;20223;-82
2022/12/07 09:18:32;;;;;;;22.27;14.83;;;4.70;99.90;;;;;;5049267;28;20591;-91
2022/12/07 09:21:23;;;;;;;23.40;14.03;;;4.70;99.90;;;;;;5029106;28;20232;-86
2022/12/07 09:24:13;;;;;;;25.13;15.37;;;4.60;99.90;;;;;;5019723;28;20903;-83
2022/12/07 09:27:01;;;;;;;25.20;14.37;;;4.70;99.90;;;;;;5032271;28;20674;-84
2022/12/07 09:29:50;;;;;;;25.23;15.03;;;4.70;99.90;;;;;;5023895;28;20324;-86
2022/12/07 09:32:39;;;;;;;25.40;14.87;;;4.60;99.90;;;;;;5018660;28;20236;-88
2022/12/07 09:35:28;;;;;;;24.70;14.40;;;4.70;99.90;;;;;;5036170;28;20229;-85
2022/12/07 09:38:19;;;;;;;25.23;16.10;;;4.70;99.90;;;;;;5023607;28;20236;-86
2022/12/07 09:41:08;;;;;;;23.60;15.13;;;4.90;99.90;;;;;;5025364;28;20221;-94
2022/12/07 09:44:04;;;;;;;24.47;15.77;;;4.90;99.90;;;;;;5041885;28;20308;-91
2022/12/07 09:46:53;;;;;;;25.27;16.17;;;4.80;99.90;;;;;;5060918;28;20212;-91
2022/12/07 09:49:43;;;;;;;25.20;15.77;;;5.00;99.90;;;;;;5037538;28;20260;-87
2022/12/07 09:52:32;;;;;;;25.17;14.87;;;4.90;99.90;;;;;;5023851;28;20219;-83
2022/12/07 09:55:30;;;;;;;25.90;15.23;;;4.90;99.90;;;;;;5021873;28;20302;-82
2022/12/07 09:58:23;;;;;;;29.23;15.70;;;4.90;99.90;;;;;;5024346;28;20229;-83
2022/12/07 10:01:15;;;;;;;24.00;14.50;;;5.00;99.90;;;;;;5016673;28;20433;-84
2022/12/07 10:04:12;;;;;;;23.50;13.70;;;5.00;99.90;;;;;;5024072;28;20224;-84
2022/12/07 10:07:01;;;;;;;25.53;14.47;;;5.00;99.90;;;;;;5041728;28;20260;-87
2022/12/07 10:09:50;;;;;;;23.63;14.47;;;4.90;99.90;;;;;;5025387;28;20664;-84
2022/12/07 10:12:58;;;;;;;26.70;15.07;;;5.00;99.90;;;;;;5021069;28;20217;-85
2022/12/07 10:15:54;;;;;;;25.40;15.90;;;5.10;99.90;;;;;;5023575;28;20209;-81
2022/12/07 10:18:44;;;;;;;27.20;14.73;;;5.10;99.90;;;;;;5034246;28;20255;-81
2022/12/07 10:21:32;;;;;;;29.90;16.10;;;5.10;99.90;;;;;;5021806;28;20209;-80
2022/12/07 10:24:23;;;;;;;22.87;15.20;;;5.00;99.90;;;;;;5033995;28;21292;-82
2022/12/07 10:27:32;;;;;;;25.53;15.10;;;5.00;99.90;;;;;;5020592;28;20228;-82
2022/12/07 10:30:22;;;;;;;26.70;15.40;;;5.10;99.90;;;;;;5022290;28;20220;-82
2022/12/07 10:33:30;;;;;;;24.00;14.40;;;5.10;99.90;;;;;;5022286;28;20224;-83
2022/12/07 10:36:22;;;;;;;23.47;14.57;;;5.10;99.90;;;;;;5032445;28;20233;-85
2022/12/07 10:39:15;;;;;;;22.30;13.60;;;5.00;99.90;;;;;;5020602;28;21512;-85
2022/12/07 10:42:08;;;;;;;23.47;13.60;;;5.10;99.90;;;;;;5019169;28;20229;-85
2022/12/07 10:45:10;;;;;;;20.43;13.20;;;5.10;99.90;;;;;;5021607;28;20233;-82
2022/12/07 10:48:07;;;;;;;22.77;13.77;;;5.10;99.90;;;;;;5017202;28;20571;-81
2022/12/07 10:51:06;;;;;;;23.40;14.37;;;5.20;99.90;;;;;;5032593;28;20233;-83
2022/12/07 10:54:04;;;;;;;23.13;13.80;;;5.20;99.90;;;;;;5037453;28;20221;-83
2022/12/07 10:57:15;;;;;;;18.90;13.07;;;5.20;99.90;;;;;;5020097;28;20236;-83
2022/12/07 11:00:13;;;;;;;18.77;13.00;;;5.20;99.90;;;;;;5018425;28;20228;-81
2022/12/07 11:03:24;;;;;;;21.90;13.80;;;5.10;99.90;;;;;;5019291;28;20228;-86
2022/12/07 11:06:23;;;;;;;19.13;12.83;;;5.20;99.90;;;;;;5030681;28;22180;-78
2022/12/07 11:09:37;;;;;;;19.23;13.27;;;5.20;99.90;;;;;;5038866;28;20213;-85
2022/12/07 11:12:58;;;;;;;21.47;14.07;;;5.30;99.90;;;;;;5022907;28;20217;-86
2022/12/07 11:16:05;;;;;;;19.23;13.60;;;5.30;99.90;;;;;;5023129;28;20225;-84
2022/12/07 11:19:07;;;;;;;20.77;13.50;;;5.30;99.90;;;;;;5030442;28;20225;-83
2022/12/07 11:21:58;;;;;;;22.07;14.57;;;5.30;99.90;;;;;;5027658;28;20715;-82
2022/12/07 11:24:56;;;;;;;19.70;13.87;;;5.30;99.90;;;;;;5048431;28;20225;-84
2022/12/07 11:27:52;;;;;;;19.50;14.20;;;5.30;99.90;;;;;;5041088;28;20715;-89
2022/12/07 11:30:50;;;;;;;20.43;14.23;;;5.30;99.90;;;;;;5048600;28;20233;-87
2022/12/07 11:33:46;;;;;;;18.70;14.20;;;5.30;99.90;;;;;;5045973;28;20225;-91
2022/12/07 11:36:42;;;;;;;17.97;13.30;;;5.30;99.90;;;;;;5037919;28;20234;-90
2022/12/07 11:39:36;;;;;;;20.77;13.73;;;5.40;99.90;;;;;;5030181;28;20224;-94
2022/12/07 11:42:28;;;;;;;19.17;16.08;;;5.30;99.90;;;;;;5048141;28;20451;-87
2022/12/07 11:45:22;;;;;;;20.93;15.30;;;5.40;99.90;;;;;;5025279;28;20272;-83
2022/12/07 11:48:18;;;;;;;21.00;14.23;;;5.40;99.90;;;;;;5031050;28;20298;-86
2022/12/07 11:51:10;;;;;;;18.07;13.83;;;5.40;99.90;;;;;;5029738;28;20223;-89
2022/12/07 11:54:12;;;;;;;18.73;13.23;;;5.50;99.90;;;;;;5022724;28;20228;-78
2022/12/07 11:57:05;;;;;;;20.37;14.07;;;5.40;99.90;;;;;;5026883;28;20236;-88
2022/12/07 12:00:01;;;;;;;18.47;13.20;;;5.40;99.90;;;;;;5050103;28;20319;-88
2022/12/07 12:03:00;;;;;;;20.27;13.13;;;5.40;99.90;;;;;;5042439;28;20274;-78
2022/12/07 12:05:49;;;;;;;17.17;12.73;;;5.40;99.90;;;;;;5016530;28;20226;-78
2022/12/07 12:08:43;;;;;;;18.27;12.83;;;5.40;99.90;;;;;;5022596;28;20217;-80
2022/12/07 12:12:23;;;;;;;17.63;12.73;;;5.40;99.90;;;;;;5023076;28;20257;-80
2022/12/07 12:15:48;;;;;;;17.67;12.83;;;5.40;99.90;;;;;;5036151;28;20309;-79
2022/12/07 12:18:59;;;;;;;17.83;13.37;;;5.40;99.90;;;;;;5027784;28;20216;-78
2022/12/07 12:21:51;;;;;;;17.50;13.03;;;5.20;99.90;;;;;;5039386;28;20219;-78
2022/12/07 12:24:49;;;;;;;19.23;13.67;;;5.10;99.90;;;;;;5036205;28;20299;-79
2022/12/07 12:27:40;;;;;;;18.87;13.30;;;5.20;99.90;;;;;;5038882;28;20225;-78
2022/12/07 12:30:36;;;;;;;22.47;15.60;;;5.30;99.90;;;;;;5036916;28;20232;-77
2022/12/07 12:33:30;;;;;;;19.37;13.47;;;5.20;99.90;;;;;;5036916;28;20224;-79
2022/12/07 12:36:26;;;;;;;18.20;13.63;;;5.20;99.90;;;;;;5018603;28;20222;-80
2022/12/07 12:39:18;;;;;;;19.37;13.93;;;5.20;99.90;;;;;;5018560;28;20251;-78
2022/12/07 12:42:19;;;;;;;18.97;13.53;;;5.10;99.90;;;;;;5036646;28;20848;-78
2022/12/07 12:45:24;;;;;;;19.20;12.80;;;5.10;99.90;;;;;;5036845;28;20225;-78
2022/12/07 12:48:28;;;;;;;17.97;12.90;;;5.00;99.90;;;;;;5023049;28;20233;-78
2022/12/07 12:51:38;;;;;;;16.23;11.60;;;4.90;99.90;;;;;;5033638;28;20231;-79
2022/12/07 12:54:29;;;;;;;20.23;13.20;;;5.00;99.90;;;;;;5033550;28;20233;-81
2022/12/07 12:57:27;;;;;;;15.37;11.17;;;5.00;99.90;;;;;;5035099;28;20232;-80
2022/12/07 13:00:19;;;;;;;17.43;12.27;;;4.70;99.90;;;;;;5017470;28;20233;-80
2022/12/07 13:03:29;;;;;;;14.50;11.53;;;4.90;99.90;;;;;;5026209;28;20345;-80
2022/12/07 13:06:20;;;;;;;15.27;11.37;;;5.00;99.90;;;;;;5034263;28;20231;-82
2022/12/07 13:09:22;;;;;;;16.90;11.40;;;4.90;99.90;;;;;;5036055;28;20584;-80
2022/12/07 13:12:15;;;;;;;15.83;11.10;;;4.90;99.90;;;;;;5024304;28;20221;-78
2022/12/07 13:15:04;;;;;;;14.87;11.27;;;4.80;99.90;;;;;;5024140;28;20225;-78
2022/12/07 13:18:02;;;;;;;14.93;11.00;;;4.70;99.90;;;;;;5020634;28;20220;-79
2022/12/07 13:20:55;;;;;;;15.30;11.00;;;4.80;99.90;;;;;;5015847;28;20643;-77
2022/12/07 13:23:58;;;;;;;16.63;11.07;;;4.90;99.90;;;;;;5026351;28;21255;-79
2022/12/07 13:26:47;;;;;;;16.33;11.07;;;5.00;99.90;;;;;;5018873;28;20707;-76
2022/12/07 13:29:39;;;;;;;12.43;9.83;;;5.00;99.90;;;;;;5019548;28;20232;-77
2022/12/07 13:32:31;;;;;;;14.17;10.43;;;5.10;99.90;;;;;;5019130;28;20214;-79
2022/12/07 13:35:31;;;;;;;15.57;11.13;;;5.00;99.90;;;;;;5032869;28;20224;-80
2022/12/07 13:38:30;;;;;;;18.00;11.43;;;4.90;99.90;;;;;;5032530;28;20217;-79
2022/12/07 13:41:21;;;;;;;14.87;11.17;;;5.00;99.90;;;;;;5018002;28;20232;-76
2022/12/07 13:44:13;;;;;;;14.67;11.83;;;5.00;99.90;;;;;;5014194;28;20228;-77
2022/12/07 13:47:07;;;;;;;15.63;11.77;;;4.90;99.90;;;;;;5011302;28;20236;-77
2022/12/07 13:49:58;;;;;;;17.00;13.13;;;4.80;99.90;;;;;;5017907;28;20217;-76
2022/12/07 13:52:48;;;;;;;34.47;24.97;;;4.80;99.90;;;;;;5022251;28;20213;-75
2022/12/07 13:55:46;;;;;;;15.40;11.93;;;4.90;99.90;;;;;;5024115;28;20228;-75
2022/12/07 13:58:41;;;;;;;14.13;11.23;;;4.70;99.90;;;;;;5019643;28;20224;-77
2022/12/07 14:01:32;;;;;;;17.00;11.90;;;4.60;99.90;;;;;;5036981;28;20221;-76
2022/12/07 14:04:33;;;;;;;18.33;12.33;;;4.60;99.90;;;;;;5017191;28;20224;-76
2022/12/07 14:07:25;;;;;;;14.43;11.53;;;4.50;99.90;;;;;;5035290;28;20255;-76
2022/12/07 14:10:25;;;;;;;14.47;11.30;;;4.60;99.90;;;;;;5027439;28;20796;-76
2022/12/07 14:13:31;;;;;;;12.87;10.57;;;4.60;99.90;;;;;;5034598;28;20886;-77
2022/12/07 14:16:27;;;;;;;14.60;11.87;;;4.50;99.90;;;;;;5017732;28;20220;-78
2022/12/07 14:19:49;;;;;;;14.87;12.07;;;4.60;99.90;;;;;;5041448;28;20225;-78
2022/12/07 14:22:39;;;;;;;15.93;11.53;;;4.50;99.90;;;;;;5044777;28;20887;-76
2022/12/07 14:25:28;;;;;;;15.37;12.03;;;4.50;99.90;;;;;;5037181;28;20235;-76
2022/12/07 14:28:28;;;;;;;15.23;11.80;;;4.50;99.90;;;;;;5044611;28;20322;-77
2022/12/07 14:31:19;;;;;;;16.97;11.93;;;4.60;99.90;;;;;;5027763;28;20240;-77
2022/12/07 14:34:17;;;;;;;18.77;13.50;;;4.60;99.90;;;;;;5030090;28;20228;-76
2022/12/07 14:37:10;;;;;;;17.00;13.07;;;4.60;99.90;;;;;;5025186;28;20229;-77
2022/12/07 14:39:59;;;;;;;17.57;13.00;;;4.50;99.90;;;;;;5026894;28;20228;-77
2022/12/07 14:42:51;;;;;;;16.37;13.23;;;4.50;99.90;;;;;;5044925;28;20768;-77
2022/12/07 14:45:41;;;;;;;18.90;13.40;;;4.40;99.90;;;;;;5020566;28;20224;-77
2022/12/07 14:48:30;;;;;;;18.80;14.37;;;4.40;99.90;;;;;;5026059;28;20299;-78
2022/12/07 14:51:41;;;;;;;18.03;13.63;;;4.40;99.90;;;;;;5043627;28;20224;-75
2022/12/07 14:54:50;;;;;;;17.90;13.40;;;4.40;99.90;;;;;;5030833;28;20300;-77
2022/12/07 14:57:39;;;;;;;18.77;13.17;;;4.40;99.90;;;;;;5031108;28;20221;-77
2022/12/07 15:00:29;;;;;;;19.67;14.13;;;4.20;99.90;;;;;;5026798;28;20221;-76